CDT,Max TemperatureF,Mean TemperatureF,Min TemperatureF,Max Dew PointF,MeanDew PointF,Min DewpointF,Max Humidity, Mean Humidity, Min Humidity, Max Sea Level PressureIn, Mean Sea Level PressureIn, Min Sea Level PressureIn, Max VisibilityMiles, Mean VisibilityMiles, Min VisibilityMiles, Max Wind SpeedMPH, Mean Wind SpeedMPH, Max Gust SpeedMPH,PrecipitationIn, CloudCover, Events, WindDirDegrees
2013-9-1,95,83,71,72,68,63,88,66,36,29.95,29.90,29.84,10,9,6,9,3,17,0.00,0,,250
2013-9-2,86,80,73,72,68,64,83,71,51,30.00,29.92,29.87,10,10,2,9,3,,0.00,1,Rain-Thunderstorm,249
2013-9-3,89,78,66,70,64,55,94,65,31,30.05,29.99,29.94,10,10,4,10,2,16,0.00,1,,18
2013-9-4,89,76,62,63,60,54,94,64,29,30.14,30.08,30.03,10,10,2,9,1,,0.00,0,,33
2013-9-5,91,78,64,63,60,55,88,61,31,30.18,30.13,30.08,10,10,9,8,4,,0.00,0,,68
2013-9-6,89,76,64,64,61,52,94,67,27,30.17,30.11,30.05,10,10,6,7,1,,0.00,0,,34
2013-9-7,91,76,62,66,63,61,94,67,36,30.12,30.06,30.00,10,10,7,8,1,,0.00,0,,187
2013-9-8,93,80,66,68,65,59,94,64,32,30.04,29.99,29.93,10,9,4,6,1,,0.00,0,,253
2013-9-9,93,81,69,77,68,64,94,71,38,30.08,30.03,29.98,10,9,2,10,2,17,0.19,1,Rain-Thunderstorm,283
2013-9-10,91,80,69,73,69,66,100,77,43,30.17,30.12,30.06,10,8,0,18,1,24,1.16,1,Rain-Thunderstorm,81
2013-9-11,89,79,69,72,69,64,100,76,43,30.20,30.15,30.09,10,7,2,7,1,,0.00,0,,191
2013-9-12,89,78,68,72,67,64,94,71,43,30.11,30.04,29.96,10,10,6,7,1,,0.00,0,,250
2013-9-13,78,70,62,68,61,54,94,68,47,30.03,29.99,29.94,10,9,3,9,3,,0.00,1,Rain,28
2013-9-14,77,64,51,54,50,45,94,65,32,30.10,30.05,30.02,10,10,9,12,3,,0.00,0,,55
2013-9-15,84,67,50,63,54,48,100,66,32,30.14,30.09,30.06,10,10,8,9,2,,0.00,0,,115
2013-9-16,89,74,59,63,57,54,94,60,29,30.17,30.12,30.08,10,10,5,7,1,,0.00,0,,36
2013-9-17,87,74,62,68,62,59,100,69,38,30.18,30.12,30.05,10,10,5,9,2,,0.00,0,,54
2013-9-18,82,76,69,68,67,63,88,78,62,30.16,30.10,30.06,10,8,3,6,2,,0.00,3,,150
2013-9-19,89,78,68,68,65,63,94,71,40,30.14,30.07,30.00,10,8,2,9,2,,0.00,0,,164
2013-9-20,80,74,66,72,68,64,100,86,69,30.04,29.94,29.82,10,7,0,17,2,28,2.52,4,Rain,188
2013-9-21,75,66,55,66,58,50,100,76,41,29.92,29.87,29.81,10,8,1,12,5,17,0.51,3,Rain,12
2013-9-22,75,62,50,57,52,48,100,74,38,29.96,29.92,29.87,10,10,9,13,3,16,0.00,0,,56
2013-9-23,82,68,53,63,56,50,100,72,42,29.98,29.93,29.89,10,10,1,9,2,,0.00,0,,111
2013-9-24,73,70,66,70,66,59,100,92,73,29.95,29.89,29.84,10,7,1,6,3,,0.27,6,Rain-Thunderstorm,118
2013-9-25,80,71,62,68,66,61,100,86,51,29.87,29.83,29.81,10,7,0,8,1,,0.00,4,Fog,245
2013-9-26,82,70,59,66,64,59,100,82,54,30.01,29.94,29.86,10,8,4,8,1,,0.00,1,,107
2013-9-27,82,70,59,66,62,59,100,78,45,30.12,30.06,30.01,10,8,3,7,1,,0.00,0,,138
2013-9-28,80,70,59,61,58,55,94,70,44,30.17,30.10,30.06,10,10,9,9,1,,0.00,0,,163
2013-9-29,68,65,62,63,59,55,100,85,68,30.10,30.04,29.99,10,7,1,5,1,,0.45,7,Rain,161
2013-9-30,73,68,64,66,64,63,100,91,78,30.03,29.99,29.95,10,7,1,6,2,,0.00,6,Rain,151